sensor_id;sensor_type;location;lat;lon;timestamp;pressure;altitude;pressure_sealevel;temperature
65316;BMP280;51920;53.952;10.292;2022-08-04T00:00:14;101120.81;;;21.07
65316;BMP280;51920;53.952;10.292;2022-08-04T00:10:17;101112.50;;;20.98
65316;BMP280;51920;53.952;10.292;2022-08-04T00:12:47;101112.25;;;20.93
65316;BMP280;51920;53.952;10.292;2022-08-04T00:15:15;101103.22;;;20.92
65316;BMP280;51920;53.952;10.292;2022-08-04T00:17:45;101107.53;;;20.93
65316;BMP280;51920;53.952;10.292;2022-08-04T00:20:16;101097.38;;;20.90
65316;BMP280;51920;53.952;10.292;2022-08-04T00:22:44;101101.50;;;20.85
65316;BMP280;51920;53.952;10.292;2022-08-04T00:25:10;101101.28;;;20.80
65316;BMP280;51920;53.952;10.292;2022-08-04T00:27:37;101099.75;;;20.79
65316;BMP280;51920;53.952;10.292;2022-08-04T00:30:03;101103.06;;;20.74
65316;BMP280;51920;53.952;10.292;2022-08-04T00:32:29;101111.31;;;20.61
65316;BMP280;51920;53.952;10.292;2022-08-04T00:34:56;101109.59;;;20.54
65316;BMP280;51920;53.952;10.292;2022-08-04T00:37:23;101111.34;;;20.48
65316;BMP280;51920;53.952;10.292;2022-08-04T00:39:48;101102.91;;;20.43
65316;BMP280;51920;53.952;10.292;2022-08-04T00:42:29;101106.97;;;20.38
65316;BMP280;51920;53.952;10.292;2022-08-04T00:48:23;101103.88;;;20.36
65316;BMP280;51920;53.952;10.292;2022-08-04T00:51:00;101104.00;;;20.32
65316;BMP280;51920;53.952;10.292;2022-08-04T00:57:00;101099.72;;;20.31
65316;BMP280;51920;53.952;10.292;2022-08-04T01:07:59;101085.16;;;20.31
65316;BMP280;51920;53.952;10.292;2022-08-04T01:16:03;101068.25;;;20.20
65316;BMP280;51920;53.952;10.292;2022-08-04T01:29:57;101070.56;;;20.08
65316;BMP280;51920;53.952;10.292;2022-08-04T01:32:29;101064.94;;;19.99
65316;BMP280;51920;53.952;10.292;2022-08-04T01:35:03;101066.81;;;19.89
65316;BMP280;51920;53.952;10.292;2022-08-04T01:40:05;101055.81;;;19.77
65316;BMP280;51920;53.952;10.292;2022-08-04T01:42:32;101060.78;;;19.82
65316;BMP280;51920;53.952;10.292;2022-08-04T01:45:04;101053.72;;;19.81
65316;BMP280;51920;53.952;10.292;2022-08-04T01:47:30;101053.06;;;19.77
65316;BMP280;51920;53.952;10.292;2022-08-04T01:50:04;101060.97;;;19.75
65316;BMP280;51920;53.952;10.292;2022-08-04T01:52:30;101062.50;;;19.76
65316;BMP280;51920;53.952;10.292;2022-08-04T01:54:56;101057.66;;;19.80
65316;BMP280;51920;53.952;10.292;2022-08-04T01:57:22;101051.09;;;19.77
65316;BMP280;51920;53.952;10.292;2022-08-04T01:59:50;101045.25;;;19.75
65316;BMP280;51920;53.952;10.292;2022-08-04T02:02:15;101047.88;;;19.79
65316;BMP280;51920;53.952;10.292;2022-08-04T02:04:42;101047.56;;;19.77
65316;BMP280;51920;53.952;10.292;2022-08-04T02:07:13;101036.88;;;19.79
65316;BMP280;51920;53.952;10.292;2022-08-04T02:10:17;101035.00;;;19.76
65316;BMP280;51920;53.952;10.292;2022-08-04T02:20:47;101038.88;;;19.78
65316;BMP280;51920;53.952;10.292;2022-08-04T02:23:15;101035.00;;;19.76
65316;BMP280;51920;53.952;10.292;2022-08-04T02:26:00;101029.50;;;19.76
65316;BMP280;51920;53.952;10.292;2022-08-04T02:28:42;101036.56;;;19.77
65316;BMP280;51920;53.952;10.292;2022-08-04T02:31:31;101031.50;;;19.75
65316;BMP280;51920;53.952;10.292;2022-08-04T02:34:21;101033.03;;;19.76
65316;BMP280;51920;53.952;10.292;2022-08-04T02:36:49;101029.63;;;19.72
65316;BMP280;51920;53.952;10.292;2022-08-04T02:39:18;101019.06;;;19.70
65316;BMP280;51920;53.952;10.292;2022-08-04T02:41:45;101017.09;;;19.71
65316;BMP280;51920;53.952;10.292;2022-08-04T02:44:12;101009.94;;;19.73
65316;BMP280;51920;53.952;10.292;2022-08-04T02:46:40;101011.94;;;19.73
65316;BMP280;51920;53.952;10.292;2022-08-04T02:49:08;101008.47;;;19.69
65316;BMP280;51920;53.952;10.292;2022-08-04T02:51:40;101011.03;;;19.63
65316;BMP280;51920;53.952;10.292;2022-08-04T02:54:06;101010.16;;;19.66
65316;BMP280;51920;53.952;10.292;2022-08-04T02:56:33;101004.66;;;19.66
65316;BMP280;51920;53.952;10.292;2022-08-04T02:59:04;101002.34;;;19.65
65316;BMP280;51920;53.952;10.292;2022-08-04T03:01:30;101004.00;;;19.62
65316;BMP280;51920;53.952;10.292;2022-08-04T03:04:32;100997.06;;;19.58
65316;BMP280;51920;53.952;10.292;2022-08-04T03:07:28;101002.13;;;19.59
65316;BMP280;51920;53.952;10.292;2022-08-04T03:15:53;100998.75;;;19.55
65316;BMP280;51920;53.952;10.292;2022-08-04T03:50:14;100979.25;;;19.88
65316;BMP280;51920;53.952;10.292;2022-08-04T04:21:14;100986.88;;;21.01
65316;BMP280;51920;53.952;10.292;2022-08-04T04:23:51;100987.63;;;21.23
65316;BMP280;51920;53.952;10.292;2022-08-04T04:26:45;100989.13;;;21.24
65316;BMP280;51920;53.952;10.292;2022-08-04T04:29:19;100987.78;;;21.29
65316;BMP280;51920;53.952;10.292;2022-08-04T04:32:04;100986.28;;;21.37
65316;BMP280;51920;53.952;10.292;2022-08-04T04:40:33;100985.38;;;21.40
65316;BMP280;51920;53.952;10.292;2022-08-04T04:46:15;100969.50;;;21.44
65316;BMP280;51920;53.952;10.292;2022-08-04T04:48:53;100978.72;;;21.50
65316;BMP280;51920;53.952;10.292;2022-08-04T04:51:29;100980.88;;;21.65
65316;BMP280;51920;53.952;10.292;2022-08-04T04:59:02;100982.66;;;21.99
65316;BMP280;51920;53.952;10.292;2022-08-04T05:07:07;100986.72;;;22.35
65316;BMP280;51920;53.952;10.292;2022-08-04T05:12:56;100983.47;;;22.64
65316;BMP280;51920;53.952;10.292;2022-08-04T05:15:29;100985.03;;;22.74
65316;BMP280;51920;53.952;10.292;2022-08-04T05:17:57;100974.72;;;22.93
65316;BMP280;51920;53.952;10.292;2022-08-04T05:20:29;100973.94;;;23.02
65316;BMP280;51920;53.952;10.292;2022-08-04T05:23:01;100968.94;;;23.15
65316;BMP280;51920;53.952;10.292;2022-08-04T05:25:34;100972.41;;;23.34
65316;BMP280;51920;53.952;10.292;2022-08-04T05:28:04;100982.03;;;23.48
65316;BMP280;51920;53.952;10.292;2022-08-04T05:30:36;100962.97;;;23.50
65316;BMP280;51920;53.952;10.292;2022-08-04T05:33:06;100974.97;;;23.80
65316;BMP280;51920;53.952;10.292;2022-08-04T05:35:35;100979.69;;;24.03
65316;BMP280;51920;53.952;10.292;2022-08-04T05:38:02;100965.97;;;24.09
65316;BMP280;51920;53.952;10.292;2022-08-04T05:40:28;100967.75;;;24.36
65316;BMP280;51920;53.952;10.292;2022-08-04T05:42:54;100975.28;;;24.35
65316;BMP280;51920;53.952;10.292;2022-08-04T05:45:23;100973.59;;;24.53
65316;BMP280;51920;53.952;10.292;2022-08-04T05:47:50;100966.72;;;24.48
65316;BMP280;51920;53.952;10.292;2022-08-04T05:50:17;100961.47;;;24.65
65316;BMP280;51920;53.952;10.292;2022-08-04T05:52:43;100974.16;;;24.86
65316;BMP280;51920;53.952;10.292;2022-08-04T05:55:09;100961.34;;;25.04
65316;BMP280;51920;53.952;10.292;2022-08-04T05:57:38;100966.84;;;25.19
65316;BMP280;51920;53.952;10.292;2022-08-04T06:00:05;100955.25;;;25.35
65316;BMP280;51920;53.952;10.292;2022-08-04T06:02:31;100961.97;;;25.49
65316;BMP280;51920;53.952;10.292;2022-08-04T06:04:59;100955.78;;;25.74
65316;BMP280;51920;53.952;10.292;2022-08-04T06:07:25;100971.84;;;25.91
65316;BMP280;51920;53.952;10.292;2022-08-04T06:09:51;100967.72;;;26.06
65316;BMP280;51920;53.952;10.292;2022-08-04T06:12:25;100965.22;;;26.29
65316;BMP280;51920;53.952;10.292;2022-08-04T06:14:56;100962.09;;;26.53
65316;BMP280;51920;53.952;10.292;2022-08-04T06:17:27;100957.84;;;26.52
65316;BMP280;51920;53.952;10.292;2022-08-04T06:19:55;100946.09;;;26.68
65316;BMP280;51920;53.952;10.292;2022-08-04T06:22:22;100945.13;;;26.77
65316;BMP280;51920;53.952;10.292;2022-08-04T06:24:49;100945.22;;;26.88
65316;BMP280;51920;53.952;10.292;2022-08-04T06:27:17;100953.72;;;27.11
65316;BMP280;51920;53.952;10.292;2022-08-04T06:29:44;100951.22;;;26.81
65316;BMP280;51920;53.952;10.292;2022-08-04T06:32:13;100955.06;;;26.89
65316;BMP280;51920;53.952;10.292;2022-08-04T06:35:00;100956.16;;;26.97
65316;BMP280;51920;53.952;10.292;2022-08-04T06:37:26;100951.19;;;27.13
65316;BMP280;51920;53.952;10.292;2022-08-04T06:39:52;100960.19;;;27.45
65316;BMP280;51920;53.952;10.292;2022-08-04T06:42:21;100964.88;;;27.76
65316;BMP280;51920;53.952;10.292;2022-08-04T06:45:00;100964.94;;;28.04
65316;BMP280;51920;53.952;10.292;2022-08-04T06:47:26;100959.94;;;28.31
65316;BMP280;51920;53.952;10.292;2022-08-04T06:49:55;100962.69;;;28.64
65316;BMP280;51920;53.952;10.292;2022-08-04T06:52:21;100955.63;;;28.52
65316;BMP280;51920;53.952;10.292;2022-08-04T06:54:48;100967.22;;;28.84
65316;BMP280;51920;53.952;10.292;2022-08-04T06:57:19;100945.69;;;28.96
65316;BMP280;51920;53.952;10.292;2022-08-04T06:59:49;100947.31;;;29.33
65316;BMP280;51920;53.952;10.292;2022-08-04T07:02:19;100946.34;;;29.19
65316;BMP280;51920;53.952;10.292;2022-08-04T07:04:47;100949.09;;;29.77
65316;BMP280;51920;53.952;10.292;2022-08-04T07:07:14;100942.88;;;29.95
65316;BMP280;51920;53.952;10.292;2022-08-04T07:09:40;100951.50;;;30.33
65316;BMP280;51920;53.952;10.292;2022-08-04T07:12:09;100946.50;;;30.20
65316;BMP280;51920;53.952;10.292;2022-08-04T07:14:35;100955.03;;;30.34
65316;BMP280;51920;53.952;10.292;2022-08-04T07:17:05;100949.91;;;30.38
65316;BMP280;51920;53.952;10.292;2022-08-04T07:19:33;100945.16;;;30.57
65316;BMP280;51920;53.952;10.292;2022-08-04T07:22:06;100945.16;;;30.81
65316;BMP280;51920;53.952;10.292;2022-08-04T07:24:36;100935.94;;;30.62
65316;BMP280;51920;53.952;10.292;2022-08-04T07:27:05;100944.81;;;31.10
65316;BMP280;51920;53.952;10.292;2022-08-04T07:29:35;100952.94;;;31.13
65316;BMP280;51920;53.952;10.292;2022-08-04T07:32:10;100919.75;;;31.23
65316;BMP280;51920;53.952;10.292;2022-08-04T07:34:50;100909.31;;;31.42
65316;BMP280;51920;53.952;10.292;2022-08-04T07:37:16;100928.91;;;31.74
65316;BMP280;51920;53.952;10.292;2022-08-04T07:39:42;100930.94;;;32.06
65316;BMP280;51920;53.952;10.292;2022-08-04T07:42:11;100931.09;;;32.40
65316;BMP280;51920;53.952;10.292;2022-08-04T07:44:37;100938.25;;;32.41
65316;BMP280;51920;53.952;10.292;2022-08-04T07:47:05;100931.63;;;32.38
65316;BMP280;51920;53.952;10.292;2022-08-04T07:49:31;100912.00;;;32.38
65316;BMP280;51920;53.952;10.292;2022-08-04T07:52:03;100906.06;;;32.42
65316;BMP280;51920;53.952;10.292;2022-08-04T07:54:34;100921.50;;;32.75
65316;BMP280;51920;53.952;10.292;2022-08-04T07:57:02;100922.75;;;32.87
65316;BMP280;51920;53.952;10.292;2022-08-04T07:59:31;100923.25;;;33.12
65316;BMP280;51920;53.952;10.292;2022-08-04T08:02:00;100922.88;;;33.29
65316;BMP280;51920;53.952;10.292;2022-08-04T08:04:27;100922.91;;;33.16
65316;BMP280;51920;53.952;10.292;2022-08-04T08:06:57;100915.16;;;33.09
65316;BMP280;51920;53.952;10.292;2022-08-04T08:09:23;100918.22;;;33.32
65316;BMP280;51920;53.952;10.292;2022-08-04T08:11:50;100915.22;;;33.30
65316;BMP280;51920;53.952;10.292;2022-08-04T08:14:20;100919.88;;;33.27
65316;BMP280;51920;53.952;10.292;2022-08-04T08:16:46;100930.09;;;33.59
65316;BMP280;51920;53.952;10.292;2022-08-04T08:19:12;100903.47;;;33.52
65316;BMP280;51920;53.952;10.292;2022-08-04T08:21:39;100914.97;;;33.62
65316;BMP280;51920;53.952;10.292;2022-08-04T08:24:09;100918.63;;;33.36
65316;BMP280;51920;53.952;10.292;2022-08-04T08:26:35;100904.69;;;33.44
65316;BMP280;51920;53.952;10.292;2022-08-04T08:29:02;100918.50;;;33.83
65316;BMP280;51920;53.952;10.292;2022-08-04T08:31:28;100919.88;;;33.69
65316;BMP280;51920;53.952;10.292;2022-08-04T08:33:54;100915.41;;;32.98
65316;BMP280;51920;53.952;10.292;2022-08-04T08:36:37;100920.56;;;33.07
65316;BMP280;51920;53.952;10.292;2022-08-04T08:39:44;100913.31;;;33.66
65316;BMP280;51920;53.952;10.292;2022-08-04T08:45:14;100909.69;;;34.08
65316;BMP280;51920;53.952;10.292;2022-08-04T09:13:04;100902.44;;;33.63
65316;BMP280;51920;53.952;10.292;2022-08-04T09:15:48;100885.31;;;33.82
65316;BMP280;51920;53.952;10.292;2022-08-04T09:18:40;100885.19;;;33.87
65316;BMP280;51920;53.952;10.292;2022-08-04T09:21:30;100892.09;;;33.86
65316;BMP280;51920;53.952;10.292;2022-08-04T09:24:13;100895.25;;;34.04
65316;BMP280;51920;53.952;10.292;2022-08-04T09:29:57;100899.78;;;34.43
65316;BMP280;51920;53.952;10.292;2022-08-04T09:35:12;100897.47;;;34.26
65316;BMP280;51920;53.952;10.292;2022-08-04T09:43:14;100886.16;;;33.69
65316;BMP280;51920;53.952;10.292;2022-08-04T09:46:22;100885.28;;;33.53
65316;BMP280;51920;53.952;10.292;2022-08-04T09:48:55;100878.56;;;33.56
65316;BMP280;51920;53.952;10.292;2022-08-04T09:57:40;100878.28;;;35.20
65316;BMP280;51920;53.952;10.292;2022-08-04T10:00:12;100867.94;;;35.15
65316;BMP280;51920;53.952;10.292;2022-08-04T10:02:52;100870.41;;;35.57
65316;BMP280;51920;53.952;10.292;2022-08-04T10:05:40;100871.91;;;35.42
65316;BMP280;51920;53.952;10.292;2022-08-04T10:08:35;100867.00;;;35.20
65316;BMP280;51920;53.952;10.292;2022-08-04T10:11:07;100872.66;;;35.27
65316;BMP280;51920;53.952;10.292;2022-08-04T10:16:34;100859.31;;;35.36
65316;BMP280;51920;53.952;10.292;2022-08-04T10:19:31;100853.84;;;35.45
65316;BMP280;51920;53.952;10.292;2022-08-04T10:22:14;100853.66;;;35.59
65316;BMP280;51920;53.952;10.292;2022-08-04T10:27:37;100847.06;;;35.71
65316;BMP280;51920;53.952;10.292;2022-08-04T10:30:07;100843.13;;;35.82
65316;BMP280;51920;53.952;10.292;2022-08-04T10:35:10;100835.53;;;36.00
65316;BMP280;51920;53.952;10.292;2022-08-04T10:37:46;100836.13;;;35.91
65316;BMP280;51920;53.952;10.292;2022-08-04T10:43:43;100832.03;;;34.77
65316;BMP280;51920;53.952;10.292;2022-08-04T10:46:16;100831.13;;;34.38
65316;BMP280;51920;53.952;10.292;2022-08-04T10:51:48;100822.63;;;34.74
65316;BMP280;51920;53.952;10.292;2022-08-04T10:54:20;100824.38;;;35.23
65316;BMP280;51920;53.952;10.292;2022-08-04T10:56:50;100826.97;;;35.60
65316;BMP280;51920;53.952;10.292;2022-08-04T10:59:27;100818.84;;;35.79
65316;BMP280;51920;53.952;10.292;2022-08-04T11:01:58;100804.19;;;35.80
65316;BMP280;51920;53.952;10.292;2022-08-04T11:07:04;100805.72;;;35.74
65316;BMP280;51920;53.952;10.292;2022-08-04T11:09:32;100809.53;;;35.46
65316;BMP280;51920;53.952;10.292;2022-08-04T11:12:18;100814.78;;;35.42
65316;BMP280;51920;53.952;10.292;2022-08-04T11:17:26;100802.38;;;35.07
65316;BMP280;51920;53.952;10.292;2022-08-04T11:20:12;100805.59;;;34.95
65316;BMP280;51920;53.952;10.292;2022-08-04T11:22:45;100800.88;;;35.36
65316;BMP280;51920;53.952;10.292;2022-08-04T11:25:18;100804.66;;;35.39
65316;BMP280;51920;53.952;10.292;2022-08-04T11:30:18;100799.75;;;35.47
65316;BMP280;51920;53.952;10.292;2022-08-04T11:35:42;100795.41;;;35.69
65316;BMP280;51920;53.952;10.292;2022-08-04T11:38:30;100796.00;;;35.37
65316;BMP280;51920;53.952;10.292;2022-08-04T11:40:59;100799.22;;;35.03
65316;BMP280;51920;53.952;10.292;2022-08-04T11:43:55;100795.09;;;35.34
65316;BMP280;51920;53.952;10.292;2022-08-04T11:46:26;100789.03;;;35.61
65316;BMP280;51920;53.952;10.292;2022-08-04T11:49:19;100782.34;;;35.96
65316;BMP280;51920;53.952;10.292;2022-08-04T11:51:49;100780.81;;;36.03
65316;BMP280;51920;53.952;10.292;2022-08-04T11:54:15;100782.72;;;36.00
65316;BMP280;51920;53.952;10.292;2022-08-04T11:56:41;100784.63;;;35.90
65316;BMP280;51920;53.952;10.292;2022-08-04T11:59:07;100787.13;;;35.71
65316;BMP280;51920;53.952;10.292;2022-08-04T12:04:30;100784.31;;;35.63
65316;BMP280;51920;53.952;10.292;2022-08-04T12:10:05;100780.44;;;35.28
65316;BMP280;51920;53.952;10.292;2022-08-04T12:12:39;100791.88;;;34.92
65316;BMP280;51920;53.952;10.292;2022-08-04T12:15:27;100785.47;;;34.76
65316;BMP280;51920;53.952;10.292;2022-08-04T12:20:28;100785.47;;;34.76
65316;BMP280;51920;53.952;10.292;2022-08-04T12:22:56;100775.75;;;35.08
65316;BMP280;51920;53.952;10.292;2022-08-04T12:25:31;100773.31;;;35.19
65316;BMP280;51920;53.952;10.292;2022-08-04T12:28:06;100759.03;;;35.33
65316;BMP280;51920;53.952;10.292;2022-08-04T12:30:38;100764.25;;;35.36
65316;BMP280;51920;53.952;10.292;2022-08-04T12:33:20;100759.72;;;35.56
65316;BMP280;51920;53.952;10.292;2022-08-04T12:38:40;100755.03;;;35.51
65316;BMP280;51920;53.952;10.292;2022-08-04T12:41:09;100753.75;;;35.44
65316;BMP280;51920;53.952;10.292;2022-08-04T12:43:42;100756.59;;;35.29
65316;BMP280;51920;53.952;10.292;2022-08-04T12:46:09;100754.16;;;35.10
65316;BMP280;51920;53.952;10.292;2022-08-04T12:48:37;100747.41;;;34.83
65316;BMP280;51920;53.952;10.292;2022-08-04T12:51:07;100747.19;;;34.81
65316;BMP280;51920;53.952;10.292;2022-08-04T12:53:40;100744.56;;;34.75
65316;BMP280;51920;53.952;10.292;2022-08-04T12:56:08;100744.03;;;34.84
65316;BMP280;51920;53.952;10.292;2022-08-04T12:58:46;100735.72;;;34.71
65316;BMP280;51920;53.952;10.292;2022-08-04T13:01:20;100736.88;;;34.98
65316;BMP280;51920;53.952;10.292;2022-08-04T13:03:53;100723.19;;;35.03
65316;BMP280;51920;53.952;10.292;2022-08-04T13:06:24;100727.66;;;35.21
65316;BMP280;51920;53.952;10.292;2022-08-04T13:08:51;100720.16;;;35.39
65316;BMP280;51920;53.952;10.292;2022-08-04T13:11:17;100715.63;;;35.36
65316;BMP280;51920;53.952;10.292;2022-08-04T13:13:44;100716.59;;;35.15
65316;BMP280;51920;53.952;10.292;2022-08-04T13:16:10;100717.16;;;34.83
65316;BMP280;51920;53.952;10.292;2022-08-04T13:18:38;100699.91;;;34.64
65316;BMP280;51920;53.952;10.292;2022-08-04T13:21:16;100705.00;;;34.58
65316;BMP280;51920;53.952;10.292;2022-08-04T13:23:42;100703.78;;;34.30
65316;BMP280;51920;53.952;10.292;2022-08-04T13:26:12;100699.44;;;34.21
65316;BMP280;51920;53.952;10.292;2022-08-04T13:28:40;100705.47;;;34.33
65316;BMP280;51920;53.952;10.292;2022-08-04T13:31:07;100706.59;;;34.38
65316;BMP280;51920;53.952;10.292;2022-08-04T13:33:36;100698.00;;;34.51
65316;BMP280;51920;53.952;10.292;2022-08-04T13:36:03;100705.16;;;34.75
65316;BMP280;51920;53.952;10.292;2022-08-04T13:38:30;100694.66;;;34.98
65316;BMP280;51920;53.952;10.292;2022-08-04T13:40:59;100686.41;;;35.00
65316;BMP280;51920;53.952;10.292;2022-08-04T13:43:27;100675.50;;;35.05
65316;BMP280;51920;53.952;10.292;2022-08-04T13:46:00;100668.34;;;35.11
65316;BMP280;51920;53.952;10.292;2022-08-04T13:48:31;100656.53;;;35.13
65316;BMP280;51920;53.952;10.292;2022-08-04T13:51:00;100658.59;;;35.05
65316;BMP280;51920;53.952;10.292;2022-08-04T13:53:31;100661.63;;;34.91
65316;BMP280;51920;53.952;10.292;2022-08-04T13:55:58;100657.88;;;34.66
65316;BMP280;51920;53.952;10.292;2022-08-04T13:58:25;100657.66;;;34.48
65316;BMP280;51920;53.952;10.292;2022-08-04T14:00:59;100662.75;;;34.35
65316;BMP280;51920;53.952;10.292;2022-08-04T14:03:33;100653.34;;;34.32
65316;BMP280;51920;53.952;10.292;2022-08-04T14:08:57;100647.75;;;34.55
65316;BMP280;51920;53.952;10.292;2022-08-04T14:11:47;100644.94;;;34.63
65316;BMP280;51920;53.952;10.292;2022-08-04T14:17:02;100636.88;;;34.52
65316;BMP280;51920;53.952;10.292;2022-08-04T14:22:35;100629.38;;;34.39
65316;BMP280;51920;53.952;10.292;2022-08-04T14:27:29;100636.06;;;34.13
65316;BMP280;51920;53.952;10.292;2022-08-04T14:29:55;100637.16;;;34.10
65316;BMP280;51920;53.952;10.292;2022-08-04T14:32:20;100634.28;;;33.87
65316;BMP280;51920;53.952;10.292;2022-08-04T14:34:46;100644.97;;;33.81
65316;BMP280;51920;53.952;10.292;2022-08-04T14:37:14;100641.19;;;33.71
65316;BMP280;51920;53.952;10.292;2022-08-04T14:39:48;100635.47;;;33.55
65316;BMP280;51920;53.952;10.292;2022-08-04T14:42:14;100633.59;;;33.58
65316;BMP280;51920;53.952;10.292;2022-08-04T14:44:57;100631.69;;;33.45
65316;BMP280;51920;53.952;10.292;2022-08-04T14:47:43;100627.13;;;33.34
65316;BMP280;51920;53.952;10.292;2022-08-04T14:50:10;100623.19;;;33.37
65316;BMP280;51920;53.952;10.292;2022-08-04T14:52:36;100636.75;;;33.18
65316;BMP280;51920;53.952;10.292;2022-08-04T14:57:41;100647.75;;;32.87
65316;BMP280;51920;53.952;10.292;2022-08-04T15:00:07;100662.38;;;33.14
65316;BMP280;51920;53.952;10.292;2022-08-04T15:02:33;100673.41;;;33.12
65316;BMP280;51920;53.952;10.292;2022-08-04T15:05:01;100678.91;;;32.76
65316;BMP280;51920;53.952;10.292;2022-08-04T15:07:28;100684.56;;;32.63
65316;BMP280;51920;53.952;10.292;2022-08-04T15:09:54;100691.88;;;32.45
65316;BMP280;51920;53.952;10.292;2022-08-04T15:12:19;100695.50;;;32.19
65316;BMP280;51920;53.952;10.292;2022-08-04T15:14:45;100700.69;;;32.15
65316;BMP280;51920;53.952;10.292;2022-08-04T15:17:11;100694.91;;;31.87
65316;BMP280;51920;53.952;10.292;2022-08-04T15:19:37;100698.16;;;31.77
65316;BMP280;51920;53.952;10.292;2022-08-04T15:22:03;100692.75;;;31.53
65316;BMP280;51920;53.952;10.292;2022-08-04T15:24:28;100705.75;;;31.50
65316;BMP280;51920;53.952;10.292;2022-08-04T15:26:56;100704.56;;;31.46
65316;BMP280;51920;53.952;10.292;2022-08-04T15:29:27;100703.59;;;31.30
65316;BMP280;51920;53.952;10.292;2022-08-04T15:31:53;100699.56;;;31.12
65316;BMP280;51920;53.952;10.292;2022-08-04T15:34:20;100695.44;;;31.00
65316;BMP280;51920;53.952;10.292;2022-08-04T15:36:55;100688.66;;;30.76
65316;BMP280;51920;53.952;10.292;2022-08-04T15:47:27;100714.69;;;30.09
65316;BMP280;51920;53.952;10.292;2022-08-04T15:50:05;100707.72;;;29.97
65316;BMP280;51920;53.952;10.292;2022-08-04T15:55:37;100723.84;;;29.61
65316;BMP280;51920;53.952;10.292;2022-08-04T15:58:08;100726.69;;;29.55
65316;BMP280;51920;53.952;10.292;2022-08-04T16:06:32;100747.50;;;29.18
65316;BMP280;51920;53.952;10.292;2022-08-04T16:16:30;100812.13;;;28.70
65316;BMP280;51920;53.952;10.292;2022-08-04T16:19:10;100822.59;;;28.58
65316;BMP280;51920;53.952;10.292;2022-08-04T16:27:11;100801.41;;;27.99
65316;BMP280;51920;53.952;10.292;2022-08-04T16:29:39;100798.59;;;27.71
65316;BMP280;51920;53.952;10.292;2022-08-04T16:37:01;100788.59;;;26.48
65316;BMP280;51920;53.952;10.292;2022-08-04T16:39:27;100805.09;;;26.26
65316;BMP280;51920;53.952;10.292;2022-08-04T16:41:53;100839.97;;;26.01
65316;BMP280;51920;53.952;10.292;2022-08-04T16:44:32;100875.88;;;25.58
65316;BMP280;51920;53.952;10.292;2022-08-04T16:46:59;100900.75;;;25.52
65316;BMP280;51920;53.952;10.292;2022-08-04T16:49:26;100896.03;;;25.58
65316;BMP280;51920;53.952;10.292;2022-08-04T16:51:53;100904.91;;;25.42
65316;BMP280;51920;53.952;10.292;2022-08-04T16:54:23;100929.41;;;25.44
65316;BMP280;51920;53.952;10.292;2022-08-04T16:56:48;100939.78;;;25.49
65316;BMP280;51920;53.952;10.292;2022-08-04T16:59:14;100937.59;;;25.53
65316;BMP280;51920;53.952;10.292;2022-08-04T17:01:47;100941.72;;;25.43
65316;BMP280;51920;53.952;10.292;2022-08-04T17:04:14;100941.69;;;25.37
65316;BMP280;51920;53.952;10.292;2022-08-04T17:06:40;100933.81;;;25.35
65316;BMP280;51920;53.952;10.292;2022-08-04T17:09:17;100925.44;;;25.30
65316;BMP280;51920;53.952;10.292;2022-08-04T17:11:44;100902.63;;;25.20
65316;BMP280;51920;53.952;10.292;2022-08-04T17:14:10;100882.38;;;25.55
65316;BMP280;51920;53.952;10.292;2022-08-04T17:16:39;100878.28;;;25.50
65316;BMP280;51920;53.952;10.292;2022-08-04T17:19:06;100882.09;;;25.32
65316;BMP280;51920;53.952;10.292;2022-08-04T17:21:34;100868.03;;;25.16
65316;BMP280;51920;53.952;10.292;2022-08-04T17:24:02;100860.75;;;25.18
65316;BMP280;51920;53.952;10.292;2022-08-04T17:26:34;100851.41;;;25.16
65316;BMP280;51920;53.952;10.292;2022-08-04T17:28:59;100853.13;;;25.13
65316;BMP280;51920;53.952;10.292;2022-08-04T17:31:27;100837.41;;;25.10
65316;BMP280;51920;53.952;10.292;2022-08-04T17:33:55;100831.88;;;25.10
65316;BMP280;51920;53.952;10.292;2022-08-04T17:36:26;100819.31;;;25.09
65316;BMP280;51920;53.952;10.292;2022-08-04T17:39:03;100814.72;;;25.06
65316;BMP280;51920;53.952;10.292;2022-08-04T17:41:34;100817.41;;;25.00
65316;BMP280;51920;53.952;10.292;2022-08-04T17:44:02;100822.25;;;24.85
65316;BMP280;51920;53.952;10.292;2022-08-04T17:51:32;100815.03;;;24.93
65316;BMP280;51920;53.952;10.292;2022-08-04T17:53:58;100817.91;;;24.99
65316;BMP280;51920;53.952;10.292;2022-08-04T17:59:19;100811.91;;;24.85
65316;BMP280;51920;53.952;10.292;2022-08-04T18:01:56;100806.53;;;24.97
65316;BMP280;51920;53.952;10.292;2022-08-04T18:06:52;100805.31;;;24.98
65316;BMP280;51920;53.952;10.292;2022-08-04T18:12:05;100818.56;;;24.94
65316;BMP280;51920;53.952;10.292;2022-08-04T18:14:43;100819.28;;;24.89
65316;BMP280;51920;53.952;10.292;2022-08-04T18:17:09;100817.75;;;24.88
65316;BMP280;51920;53.952;10.292;2022-08-04T18:19:35;100819.94;;;24.83
65316;BMP280;51920;53.952;10.292;2022-08-04T18:22:05;100824.94;;;24.79
65316;BMP280;51920;53.952;10.292;2022-08-04T18:24:33;100839.06;;;24.81
65316;BMP280;51920;53.952;10.292;2022-08-04T18:26:58;100845.28;;;24.76
65316;BMP280;51920;53.952;10.292;2022-08-04T18:29:24;100839.72;;;24.56
65316;BMP280;51920;53.952;10.292;2022-08-04T18:31:49;100842.34;;;24.65
65316;BMP280;51920;53.952;10.292;2022-08-04T18:34:15;100852.00;;;24.55
65316;BMP280;51920;53.952;10.292;2022-08-04T18:36:44;100845.03;;;24.45
65316;BMP280;51920;53.952;10.292;2022-08-04T18:39:10;100845.81;;;24.30
65316;BMP280;51920;53.952;10.292;2022-08-04T18:41:38;100847.75;;;24.24
65316;BMP280;51920;53.952;10.292;2022-08-04T18:44:04;100843.72;;;24.25
65316;BMP280;51920;53.952;10.292;2022-08-04T18:46:36;100848.88;;;24.18
65316;BMP280;51920;53.952;10.292;2022-08-04T18:49:02;100857.09;;;24.12